Time;durP1;ratioP1;P1;durP2;ratioP2;P2;SDS_P1;SDS_P2;PMS_P1;PMS_P2;Temp;Humidity;BMP_temperature;BMP_pressure;BME280_temperature;BME280_humidity;BME280_pressure;Samples;Min_cycle;Max_cycle;Signal;HPM_P1;HPM_P2
2022/07/21 00:00:48;;;;;;;12.83;9.00;;;;;;;;;;5055735;28;20205;-69
2022/07/21 00:03:14;;;;;;;10.10;9.10;;;;;;;;;;5037665;28;20179;-70
2022/07/21 00:05:40;;;;;;;12.70;9.80;;;;;;;;;;5055441;28;20251;-69
2022/07/21 00:08:06;;;;;;;10.00;8.80;;;;;;;;;;5037554;28;20191;-69
2022/07/21 00:10:32;;;;;;;12.07;9.00;;;;;;;;;;5055233;28;20213;-69
2022/07/21 00:12:58;;;;;;;12.67;9.50;;;;;;;;;;5055578;28;20170;-69
2022/07/21 00:15:25;;;;;;;12.63;9.77;;;;;;;;;;5037391;28;20265;-69
2022/07/21 00:17:51;;;;;;;9.53;8.53;;;;;;;;;;5055519;28;20705;-70
2022/07/21 00:20:18;;;;;;;12.03;9.47;;;;;;;;;;5055104;28;20522;-69
2022/07/21 00:22:44;;;;;;;11.03;8.87;;;;;;;;;;5037322;28;20186;-69
2022/07/21 00:25:11;;;;;;;11.80;9.77;;;;;;;;;;5055079;28;20175;-69
2022/07/21 00:27:37;;;;;;;15.27;9.23;;;;;;;;;;5055061;28;20529;-69
2022/07/21 00:30:04;;;;;;;13.70;10.00;;;;;;;;;;5054906;28;20183;-68
2022/07/21 00:32:30;;;;;;;10.90;9.83;;;;;;;;;;5055061;28;20175;-69
2022/07/21 00:34:56;;;;;;;11.00;9.60;;;;;;;;;;5055197;28;20699;-68
2022/07/21 00:37:23;;;;;;;10.97;9.87;;;;;;;;;;5054940;28;20221;-68
2022/07/21 00:39:50;;;;;;;10.23;9.20;;;;;;;;;;5037005;28;20548;-69
2022/07/21 00:42:26;;;;;;;11.93;10.23;;;;;;;;;;5036745;28;20206;-66
2022/07/21 00:44:52;;;;;;;11.13;10.03;;;;;;;;;;5036163;28;20260;-69
2022/07/21 00:47:25;;;;;;;11.03;9.93;;;;;;;;;;5036896;28;20235;-68
2022/07/21 00:49:52;;;;;;;11.93;9.70;;;;;;;;;;5054992;28;20171;-69
2022/07/21 00:52:18;;;;;;;11.37;10.17;;;;;;;;;;5054582;28;20183;-66
2022/07/21 00:54:44;;;;;;;11.40;9.87;;;;;;;;;;5054607;28;20162;-67
2022/07/21 00:57:11;;;;;;;10.87;9.77;;;;;;;;;;5036704;28;20170;-68
2022/07/21 00:59:37;;;;;;;12.00;10.77;;;;;;;;;;5036545;28;20182;-69
2022/07/21 01:02:03;;;;;;;13.07;9.80;;;;;;;;;;5054294;28;20198;-69
2022/07/21 01:04:29;;;;;;;12.07;10.40;;;;;;;;;;5054414;28;20666;-69
2022/07/21 01:06:56;;;;;;;11.50;10.17;;;;;;;;;;5036387;28;20182;-69
2022/07/21 01:09:23;;;;;;;11.37;10.03;;;;;;;;;;5054355;28;20237;-69
2022/07/21 01:11:49;;;;;;;11.80;10.27;;;;;;;;;;5036167;28;20222;-69
2022/07/21 01:14:15;;;;;;;11.40;10.13;;;;;;;;;;5036345;28;20175;-69
2022/07/21 01:16:43;;;;;;;13.50;10.40;;;;;;;;;;5036529;28;20554;-69
2022/07/21 01:19:09;;;;;;;13.33;12.03;;;;;;;;;;5054137;28;20174;-69
2022/07/21 01:21:39;;;;;;;12.67;11.00;;;;;;;;;;5036093;28;20206;-69
2022/07/21 01:24:06;;;;;;;14.23;11.30;;;;;;;;;;5053989;28;20204;-69
2022/07/21 01:26:39;;;;;;;12.03;10.93;;;;;;;;;;5054318;28;20186;-69
2022/07/21 01:29:05;;;;;;;14.23;11.63;;;;;;;;;;5054074;28;20173;-69
2022/07/21 01:31:31;;;;;;;12.57;11.23;;;;;;;;;;5035789;28;20210;-69
2022/07/21 01:33:57;;;;;;;13.63;12.07;;;;;;;;;;5035947;28;20182;-69
2022/07/21 01:36:23;;;;;;;13.00;11.70;;;;;;;;;;5035930;28;20182;-69
2022/07/21 01:41:33;;;;;;;14.10;12.37;;;;;;;;;;5054059;28;20297;-68
2022/07/21 01:44:05;;;;;;;16.70;12.17;;;;;;;;;;5053738;28;20206;-69
2022/07/21 01:46:32;;;;;;;12.13;10.77;;;;;;;;;;5053947;28;20250;-69
2022/07/21 01:48:58;;;;;;;12.40;11.03;;;;;;;;;;5053667;28;20178;-69
2022/07/21 01:51:24;;;;;;;14.20;10.40;;;;;;;;;;5053387;28;20216;-69
2022/07/21 01:53:50;;;;;;;12.37;10.10;;;;;;;;;;5053685;28;20229;-69
2022/07/21 01:56:19;;;;;;;10.03;9.03;;;;;;;;;;5034903;28;20182;-69
2022/07/21 01:58:44;;;;;;;10.47;9.40;;;;;;;;;;5053403;28;20170;-68
2022/07/21 02:01:10;;;;;;;11.50;9.40;;;;;;;;;;5053493;28;20361;-68
2022/07/21 02:03:36;;;;;;;14.03;11.53;;;;;;;;;;5053474;28;20182;-69
2022/07/21 02:06:04;;;;;;;12.90;11.27;;;;;;;;;;5053332;28;20186;-68
2022/07/21 02:08:31;;;;;;;13.73;11.13;;;;;;;;;;5054009;28;20539;-69
2022/07/21 02:10:57;;;;;;;13.90;12.10;;;;;;;;;;5053551;28;20206;-68
2022/07/21 02:13:23;;;;;;;14.67;11.77;;;;;;;;;;5053492;28;20251;-69
2022/07/21 02:15:49;;;;;;;17.17;12.40;;;;;;;;;;5035462;28;20205;-68
2022/07/21 02:18:15;;;;;;;13.27;11.63;;;;;;;;;;5035435;28;20661;-68
2022/07/21 02:20:41;;;;;;;14.70;12.00;;;;;;;;;;5053072;28;20264;-68
2022/07/21 02:23:07;;;;;;;16.57;12.67;;;;;;;;;;5035242;28;20182;-69
2022/07/21 02:25:33;;;;;;;13.77;12.37;;;;;;;;;;5053077;28;20189;-69
2022/07/21 02:27:59;;;;;;;14.70;12.53;;;;;;;;;;5053129;28;20226;-68
2022/07/21 02:30:25;;;;;;;15.07;13.53;;;;;;;;;;5035059;28;20214;-68
2022/07/21 02:32:51;;;;;;;13.97;12.50;;;;;;;;;;5053044;28;20257;-69
2022/07/21 02:35:17;;;;;;;13.57;12.17;;;;;;;;;;5035100;28;20186;-69
2022/07/21 02:37:42;;;;;;;17.13;12.97;;;;;;;;;;5052968;28;20178;-69
2022/07/21 02:40:09;;;;;;;15.90;11.87;;;;;;;;;;5053177;28;20178;-68
2022/07/21 02:42:35;;;;;;;13.33;11.90;;;;;;;;;;5052807;28;20197;-68
2022/07/21 02:45:00;;;;;;;17.53;13.37;;;;;;;;;;5052929;28;20630;-68
2022/07/21 02:47:26;;;;;;;17.90;13.77;;;;;;;;;;5053098;28;20186;-69
2022/07/21 02:49:52;;;;;;;15.80;13.97;;;;;;;;;;5052636;28;20185;-69
2022/07/21 02:52:18;;;;;;;16.93;14.03;;;;;;;;;;5052885;28;20202;-68
2022/07/21 02:54:44;;;;;;;14.77;13.03;;;;;;;;;;5034986;28;20232;-68
2022/07/21 02:57:10;;;;;;;17.90;14.60;;;;;;;;;;5052821;28;20185;-68
2022/07/21 02:59:36;;;;;;;16.07;12.83;;;;;;;;;;5052782;28;20186;-68
2022/07/21 03:02:02;;;;;;;13.70;12.30;;;;;;;;;;5052716;28;20205;-69
2022/07/21 03:04:28;;;;;;;17.03;12.27;;;;;;;;;;5052702;28;20226;-68
2022/07/21 03:06:54;;;;;;;11.83;10.63;;;;;;;;;;5034822;28;20229;-69
2022/07/21 03:09:20;;;;;;;13.17;11.00;;;;;;;;;;5038014;28;20556;-69
2022/07/21 03:11:46;;;;;;;11.70;10.53;;;;;;;;;;5056918;28;20743;-69
2022/07/21 03:14:12;;;;;;;13.70;11.00;;;;;;;;;;5056551;28;20728;-69
2022/07/21 03:16:37;;;;;;;14.97;11.53;;;;;;;;;;5056670;28;20672;-69
2022/07/21 03:19:03;;;;;;;13.63;11.43;;;;;;;;;;5057053;28;20206;-69
2022/07/21 03:21:29;;;;;;;12.40;11.10;;;;;;;;;;5056248;28;20202;-69
2022/07/21 03:23:55;;;;;;;13.27;11.07;;;;;;;;;;5038505;28;20646;-69
2022/07/21 03:26:21;;;;;;;14.50;11.40;;;;;;;;;;5056405;28;20178;-68
2022/07/21 03:28:47;;;;;;;13.13;11.77;;;;;;;;;;5038370;28;20182;-69
2022/07/21 03:31:13;;;;;;;13.30;11.90;;;;;;;;;;5056027;28;20585;-69
2022/07/21 03:33:39;;;;;;;16.77;12.60;;;;;;;;;;5056167;28;20171;-69
2022/07/21 03:36:07;;;;;;;14.10;12.57;;;;;;;;;;5056136;28;20171;-69
2022/07/21 03:38:33;;;;;;;20.03;12.90;;;;;;;;;;5056107;28;20175;-69
2022/07/21 03:40:58;;;;;;;15.07;12.50;;;;;;;;;;5056201;28;20263;-69
2022/07/21 03:43:24;;;;;;;14.30;12.73;;;;;;;;;;5038091;28;20182;-68
2022/07/21 03:45:50;;;;;;;15.37;13.77;;;;;;;;;;5038050;28;20189;-69
2022/07/21 03:48:16;;;;;;;17.83;12.63;;;;;;;;;;5056017;28;20178;-68
2022/07/21 03:50:42;;;;;;;16.43;13.57;;;;;;;;;;5037991;28;20218;-69
2022/07/21 03:53:09;;;;;;;15.80;12.77;;;;;;;;;;5056129;28;20658;-69
2022/07/21 03:55:35;;;;;;;18.13;14.33;;;;;;;;;;5037883;28;20205;-69
2022/07/21 03:58:03;;;;;;;15.97;13.40;;;;;;;;;;5055860;28;20175;-69
2022/07/21 04:00:31;;;;;;;14.93;13.17;;;;;;;;;;5055587;28;20210;-69
2022/07/21 04:02:57;;;;;;;16.50;14.07;;;;;;;;;;5037881;28;20186;-69
2022/07/21 04:05:24;;;;;;;18.40;14.77;;;;;;;;;;5055793;28;20182;-69
2022/07/21 04:07:50;;;;;;;18.87;14.77;;;;;;;;;;5056424;28;20179;-69
2022/07/21 04:10:18;;;;;;;15.93;14.03;;;;;;;;;;5055532;28;20277;-68
2022/07/21 04:12:44;;;;;;;19.60;15.03;;;;;;;;;;5055467;28;20228;-69
2022/07/21 04:15:11;;;;;;;20.40;14.67;;;;;;;;;;5055554;28;20175;-69
2022/07/21 04:17:38;;;;;;;18.73;15.43;;;;;;;;;;5037643;28;20538;-69
2022/07/21 04:20:04;;;;;;;21.97;14.90;;;;;;;;;;5054541;28;20175;-68
2022/07/21 04:22:30;;;;;;;17.00;15.20;;;;;;;;;;5055412;28;20249;-69
2022/07/21 04:24:56;;;;;;;16.80;14.97;;;;;;;;;;5037402;28;20537;-69
2022/07/21 04:27:22;;;;;;;18.77;15.10;;;;;;;;;;5055300;28;20201;-69
2022/07/21 04:29:48;;;;;;;18.17;14.63;;;;;;;;;;5055199;28;20236;-69
2022/07/21 04:32:14;;;;;;;20.73;15.97;;;;;;;;;;5055181;28;20217;-68
2022/07/21 04:34:40;;;;;;;16.20;14.30;;;;;;;;;;5055035;28;20182;-68
2022/07/21 04:37:06;;;;;;;15.87;13.40;;;;;;;;;;5055112;28;20180;-68
2022/07/21 04:39:32;;;;;;;17.57;14.80;;;;;;;;;;5037089;28;20237;-68
2022/07/21 04:41:58;;;;;;;25.43;14.40;;;;;;;;;;5037053;28;20218;-68
2022/07/21 04:44:24;;;;;;;18.23;14.47;;;;;;;;;;5055375;28;20179;-69
2022/07/21 04:46:50;;;;;;;16.87;13.87;;;;;;;;;;5054733;28;20552;-69
2022/07/21 04:49:16;;;;;;;16.40;14.57;;;;;;;;;;5054853;28;20186;-69
2022/07/21 04:51:42;;;;;;;16.00;14.37;;;;;;;;;;5036698;28;20570;-68
2022/07/21 04:54:08;;;;;;;18.13;14.97;;;;;;;;;;5036709;28;20555;-68
2022/07/21 04:56:34;;;;;;;19.27;14.30;;;;;;;;;;5054911;28;20228;-68
2022/07/21 04:59:01;;;;;;;19.37;15.43;;;;;;;;;;5054579;28;20183;-68
2022/07/21 05:01:27;;;;;;;18.03;14.00;;;;;;;;;;5036563;28;20579;-68
2022/07/21 05:03:53;;;;;;;15.50;13.70;;;;;;;;;;5054455;28;20190;-68
2022/07/21 05:06:19;;;;;;;20.37;13.80;;;;;;;;;;5054955;28;20181;-68
2022/07/21 05:08:45;;;;;;;18.17;14.40;;;;;;;;;;5054384;28;20554;-68
2022/07/21 05:11:11;;;;;;;18.00;14.07;;;;;;;;;;5054489;28;20218;-68
2022/07/21 05:13:37;;;;;;;16.80;14.53;;;;;;;;;;5054298;28;20174;-68
2022/07/21 05:16:03;;;;;;;15.90;14.20;;;;;;;;;;5054136;28;20273;-68
2022/07/21 05:18:29;;;;;;;17.60;14.83;;;;;;;;;;5054392;28;20174;-68
2022/07/21 05:20:55;;;;;;;15.80;14.20;;;;;;;;;;5054035;28;20198;-68
2022/07/21 05:23:21;;;;;;;16.03;13.30;;;;;;;;;;5054039;28;20732;-68
2022/07/21 05:25:47;;;;;;;15.27;13.67;;;;;;;;;;5036151;28;20182;-68
2022/07/21 05:28:13;;;;;;;16.33;13.50;;;;;;;;;;5053877;28;20186;-68
2022/07/21 05:30:38;;;;;;;15.73;13.67;;;;;;;;;;5035781;28;20299;-68
2022/07/21 05:33:04;;;;;;;14.40;12.30;;;;;;;;;;5036034;28;20186;-68
2022/07/21 05:35:31;;;;;;;16.33;14.23;;;;;;;;;;5054315;28;20171;-68
2022/07/21 05:37:57;;;;;;;14.37;12.97;;;;;;;;;;5054130;28;20231;-68
2022/07/21 05:40:23;;;;;;;16.60;13.57;;;;;;;;;;5053787;28;20215;-68
2022/07/21 05:42:49;;;;;;;15.53;13.53;;;;;;;;;;5035878;28;20257;-68
2022/07/21 05:45:15;;;;;;;18.80;13.60;;;;;;;;;;5053640;28;20189;-68
2022/07/21 05:47:41;;;;;;;15.17;13.03;;;;;;;;;;5053590;28;20643;-68
2022/07/21 05:50:07;;;;;;;15.70;12.83;;;;;;;;;;5053387;28;20183;-66
2022/07/21 05:52:33;;;;;;;15.17;13.57;;;;;;;;;;5053533;28;20174;-68
2022/07/21 05:54:59;;;;;;;13.77;12.37;;;;;;;;;;5053542;28;20593;-68
2022/07/21 05:57:25;;;;;;;17.07;12.37;;;;;;;;;;5053400;28;20190;-68
2022/07/21 05:59:51;;;;;;;15.53;12.37;;;;;;;;;;5053735;28;20178;-68
2022/07/21 06:02:17;;;;;;;13.73;11.90;;;;;;;;;;5053334;28;20198;-68
2022/07/21 06:04:43;;;;;;;14.63;11.77;;;;;;;;;;5053760;28;20281;-68
2022/07/21 06:07:09;;;;;;;15.57;11.57;;;;;;;;;;5035635;28;20650;-68
2022/07/21 06:09:35;;;;;;;12.17;10.93;;;;;;;;;;5053673;28;20240;-68
2022/07/21 06:12:01;;;;;;;13.30;11.90;;;;;;;;;;5053450;28;20590;-68
2022/07/21 06:14:27;;;;;;;14.93;10.33;;;;;;;;;;5053970;28;20175;-69
2022/07/21 06:16:53;;;;;;;12.53;11.30;;;;;;;;;;5053376;28;20252;-68
2022/07/21 06:19:19;;;;;;;11.60;10.03;;;;;;;;;;5035286;28;20240;-68
2022/07/21 06:21:45;;;;;;;13.50;11.27;;;;;;;;;;5053071;28;20203;-68
2022/07/21 06:24:11;;;;;;;13.03;10.13;;;;;;;;;;5035223;28;20182;-68
2022/07/21 06:26:38;;;;;;;16.17;11.53;;;;;;;;;;5053181;28;20186;-68
2022/07/21 06:29:06;;;;;;;11.80;10.60;;;;;;;;;;5053130;28;20638;-68
2022/07/21 06:31:32;;;;;;;13.50;10.53;;;;;;;;;;5035033;28;20603;-68
2022/07/21 06:33:57;;;;;;;13.37;10.40;;;;;;;;;;5035110;28;20178;-68
2022/07/21 06:36:23;;;;;;;13.23;10.67;;;;;;;;;;5035106;28;20245;-69
2022/07/21 06:38:49;;;;;;;10.57;9.47;;;;;;;;;;5052979;28;20635;-67
2022/07/21 06:41:15;;;;;;;11.07;9.53;;;;;;;;;;5035044;28;20214;-71
2022/07/21 06:43:41;;;;;;;10.47;9.47;;;;;;;;;;5055290;28;20178;-68
2022/07/21 06:46:07;;;;;;;10.47;9.00;;;;;;;;;;5057129;28;20183;-68
2022/07/21 06:48:33;;;;;;;11.93;9.40;;;;;;;;;;5057344;28;20184;-68
2022/07/21 06:51:00;;;;;;;10.90;8.67;;;;;;;;;;5057010;28;20263;-68
2022/07/21 06:53:26;;;;;;;11.03;8.67;;;;;;;;;;5056990;28;20171;-68
2022/07/21 06:55:53;;;;;;;9.90;8.90;;;;;;;;;;5056919;28;20536;-69
2022/07/21 06:58:27;;;;;;;12.60;8.70;;;;;;;;;;5057105;28;20201;-68
2022/07/21 07:00:53;;;;;;;12.27;9.27;;;;;;;;;;5057529;28;20202;-68
2022/07/21 07:03:20;;;;;;;12.97;9.47;;;;;;;;;;5057073;28;20217;-68
2022/07/21 07:05:46;;;;;;;11.07;9.20;;;;;;;;;;5056737;28;20218;-68
2022/07/21 07:08:13;;;;;;;10.57;8.47;;;;;;;;;;5038974;28;20182;-68
2022/07/21 07:10:39;;;;;;;9.47;8.47;;;;;;;;;;5038659;28;20305;-69
2022/07/21 07:13:05;;;;;;;10.07;8.13;;;;;;;;;;5056599;28;20208;-69
2022/07/21 07:15:31;;;;;;;10.17;8.47;;;;;;;;;;5056779;28;20171;-68
2022/07/21 07:17:57;;;;;;;8.83;7.93;;;;;;;;;;5056516;28;20185;-68
2022/07/21 07:20:23;;;;;;;10.90;8.90;;;;;;;;;;5056945;28;20178;-67
2022/07/21 07:22:49;;;;;;;10.50;7.93;;;;;;;;;;5056424;28;20549;-67
2022/07/21 07:25:19;;;;;;;9.27;7.30;;;;;;;;;;5056301;28;20193;-67
2022/07/21 07:27:46;;;;;;;9.27;8.37;;;;;;;;;;5056152;28;20186;-70
2022/07/21 07:30:12;;;;;;;12.67;7.27;;;;;;;;;;5038272;28;20185;-66
2022/07/21 07:32:39;;;;;;;9.37;7.70;;;;;;;;;;5056404;28;20258;-67
2022/07/21 07:35:05;;;;;;;8.63;6.97;;;;;;;;;;5056158;28;20216;-68
2022/07/21 07:37:33;;;;;;;9.97;6.93;;;;;;;;;;5038320;28;20174;-67
2022/07/21 07:39:59;;;;;;;8.97;6.90;;;;;;;;;;5056542;28;20183;-67
2022/07/21 07:42:25;;;;;;;9.67;6.90;;;;;;;;;;5055878;28;20259;-68
2022/07/21 07:44:51;;;;;;;7.93;6.70;;;;;;;;;;5038115;28;20209;-67
2022/07/21 07:47:17;;;;;;;8.60;7.17;;;;;;;;;;5056272;28;20277;-67
2022/07/21 07:49:43;;;;;;;9.63;6.97;;;;;;;;;;5056099;28;20532;-67
2022/07/21 07:52:10;;;;;;;9.30;7.17;;;;;;;;;;5037797;28;20610;-68
2022/07/21 07:54:36;;;;;;;8.83;6.63;;;;;;;;;;5038057;28;20562;-67
2022/07/21 07:57:02;;;;;;;6.43;5.83;;;;;;;;;;5037824;28;20175;-67
2022/07/21 07:59:28;;;;;;;6.97;6.27;;;;;;;;;;5057505;28;20174;-67
2022/07/21 08:01:54;;;;;;;6.80;6.10;;;;;;;;;;5057415;28;20229;-67
2022/07/21 08:04:20;;;;;;;11.33;6.73;;;;;;;;;;5055947;28;20566;-67
2022/07/21 08:06:46;;;;;;;9.47;6.47;;;;;;;;;;5037565;28;20209;-67
2022/07/21 08:09:11;;;;;;;9.50;6.40;;;;;;;;;;5037678;28;20241;-66
2022/07/21 08:11:37;;;;;;;11.00;6.97;;;;;;;;;;5055591;28;20210;-66
2022/07/21 08:14:03;;;;;;;9.17;5.87;;;;;;;;;;5055354;28;20704;-67
2022/07/21 08:16:29;;;;;;;7.20;6.33;;;;;;;;;;5055331;28;20611;-67
2022/07/21 08:18:55;;;;;;;8.03;6.47;;;;;;;;;;5055801;28;20181;-66
2022/07/21 08:21:21;;;;;;;7.97;6.67;;;;;;;;;;5055148;28;20666;-66
2022/07/21 08:23:47;;;;;;;8.73;7.27;;;;;;;;;;5037350;28;20193;-66
2022/07/21 08:26:13;;;;;;;7.90;7.03;;;;;;;;;;5055502;28;20182;-66
2022/07/21 08:28:39;;;;;;;9.20;6.00;;;;;;;;;;5055432;28;20182;-66
2022/07/21 08:31:05;;;;;;;7.23;6.40;;;;;;;;;;5054946;28;20244;-67
2022/07/21 08:33:31;;;;;;;9.03;6.13;;;;;;;;;;5055524;28;20336;-67
2022/07/21 08:35:57;;;;;;;7.63;5.67;;;;;;;;;;5054969;28;20174;-67
2022/07/21 08:38:24;;;;;;;9.20;7.00;;;;;;;;;;5037068;28;20178;-67
2022/07/21 08:40:50;;;;;;;7.97;6.60;;;;;;;;;;5054753;28;20285;-67
2022/07/21 08:43:16;;;;;;;7.80;7.00;;;;;;;;;;5055001;28;20623;-67
2022/07/21 08:45:42;;;;;;;8.33;6.23;;;;;;;;;;5054811;28;20643;-67
2022/07/21 08:48:08;;;;;;;11.67;6.97;;;;;;;;;;5054798;28;20565;-67
2022/07/21 08:50:36;;;;;;;11.20;7.03;;;;;;;;;;5054502;28;20214;-67
2022/07/21 08:53:02;;;;;;;7.80;6.67;;;;;;;;;;5054633;28;20185;-67
2022/07/21 08:55:32;;;;;;;8.53;5.97;;;;;;;;;;5036677;28;20261;-67
2022/07/21 08:57:58;;;;;;;10.07;6.63;;;;;;;;;;5054490;28;20685;-67
2022/07/21 09:00:24;;;;;;;7.20;6.50;;;;;;;;;;5054708;28;20254;-67
2022/07/21 09:03:07;;;;;;;7.50;6.47;;;;;;;;;;5054463;28;20182;-67
2022/07/21 09:05:33;;;;;;;9.37;6.80;;;;;;;;;;5054079;28;20163;-67
2022/07/21 09:07:59;;;;;;;8.07;6.50;;;;;;;;;;5054323;28;20175;-67
2022/07/21 09:10:27;;;;;;;9.47;7.00;;;;;;;;;;5054174;28;20201;-67
2022/07/21 09:12:59;;;;;;;8.87;6.97;;;;;;;;;;5036396;28;20758;-67
2022/07/21 09:15:27;;;;;;;6.77;6.17;;;;;;;;;;5036367;28;20304;-67
2022/07/21 09:18:06;;;;;;;6.50;5.87;;;;;;;;;;5054216;28;20337;-68
2022/07/21 09:20:32;;;;;;;10.00;6.57;;;;;;;;;;5054262;28;20682;-68
2022/07/21 09:23:17;;;;;;;6.97;6.07;;;;;;;;;;5054288;28;20261;-67
2022/07/21 09:25:43;;;;;;;8.17;6.53;;;;;;;;;;5054315;28;20179;-67
2022/07/21 09:28:16;;;;;;;7.77;6.17;;;;;;;;;;5053950;28;20175;-67
2022/07/21 09:30:48;;;;;;;8.00;6.17;;;;;;;;;;5053817;28;20210;-67
2022/07/21 09:33:21;;;;;;;9.27;6.93;;;;;;;;;;5053816;28;20185;-67
2022/07/21 09:35:57;;;;;;;8.90;6.70;;;;;;;;;;5053907;28;20179;-67
2022/07/21 09:38:23;;;;;;;7.37;6.57;;;;;;;;;;5054192;28;20410;-67
2022/07/21 09:40:49;;;;;;;9.47;7.83;;;;;;;;;;5053681;28;20218;-67
2022/07/21 09:43:34;;;;;;;10.10;7.07;;;;;;;;;;5035699;28;20654;-68
2022/07/21 09:46:01;;;;;;;10.13;7.10;;;;;;;;;;5053904;28;20711;-67
2022/07/21 09:48:31;;;;;;;7.93;6.80;;;;;;;;;;5053841;28;20178;-67
2022/07/21 09:50:57;;;;;;;7.93;6.67;;;;;;;;;;5035571;28;20218;-67
2022/07/21 09:53:23;;;;;;;8.80;7.47;;;;;;;;;;5035824;28;20179;-67
2022/07/21 09:55:49;;;;;;;8.40;6.90;;;;;;;;;;5036444;28;20741;-67
2022/07/21 09:58:15;;;;;;;8.50;7.60;;;;;;;;;;5054056;28;20257;-67
2022/07/21 10:00:41;;;;;;;11.90;8.30;;;;;;;;;;5054268;28;20257;-67
2022/07/21 10:03:08;;;;;;;12.57;8.27;;;;;;;;;;5054230;28;20238;-67
2022/07/21 10:05:34;;;;;;;9.33;7.60;;;;;;;;;;5053507;28;20186;-67
2022/07/21 10:08:02;;;;;;;12.63;9.63;;;;;;;;;;5035574;28;20180;-67
2022/07/21 10:10:28;;;;;;;11.00;8.77;;;;;;;;;;5035555;28;20561;-67
2022/07/21 10:12:54;;;;;;;13.50;9.87;;;;;;;;;;5053632;28;20186;-67
2022/07/21 10:15:20;;;;;;;15.33;9.70;;;;;;;;;;5035388;28;20561;-67
2022/07/21 10:17:48;;;;;;;12.87;10.00;;;;;;;;;;5034470;28;20204;-67
2022/07/21 10:20:23;;;;;;;13.87;10.93;;;;;;;;;;5053586;28;20174;-66
2022/07/21 10:22:49;;;;;;;15.63;12.00;;;;;;;;;;5053219;28;20547;-67
2022/07/21 10:25:16;;;;;;;15.03;11.53;;;;;;;;;;5053614;28;20177;-66
2022/07/21 10:28:14;;;;;;;15.93;11.53;;;;;;;;;;5035264;28;20268;-67
2022/07/21 10:30:42;;;;;;;13.23;11.87;;;;;;;;;;5009240;28;20270;-67
2022/07/21 10:33:08;;;;;;;15.27;11.47;;;;;;;;;;5053543;28;20635;-67
2022/07/21 10:35:34;;;;;;;14.53;10.83;;;;;;;;;;5053111;28;20185;-67
2022/07/21 10:38:01;;;;;;;12.67;11.37;;;;;;;;;;5035119;28;20174;-66
2022/07/21 10:40:27;;;;;;;11.07;9.40;;;;;;;;;;5052966;28;20187;-67
2022/07/21 10:43:02;;;;;;;12.53;9.40;;;;;;;;;;5053057;28;20155;-67
2022/07/21 10:45:32;;;;;;;12.30;9.53;;;;;;;;;;5053168;28;20234;-67
2022/07/21 10:47:58;;;;;;;11.13;9.83;;;;;;;;;;5052820;28;20181;-67
2022/07/21 10:50:35;;;;;;;10.70;9.57;;;;;;;;;;5035221;28;20560;-67
2022/07/21 10:53:02;;;;;;;11.33;9.53;;;;;;;;;;5053418;28;20174;-67
2022/07/21 10:55:35;;;;;;;12.70;10.80;;;;;;;;;;5035387;28;20265;-67
2022/07/21 10:58:07;;;;;;;14.17;10.73;;;;;;;;;;5053456;28;20292;-68
2022/07/21 11:00:36;;;;;;;14.23;12.43;;;;;;;;;;5053102;28;20198;-67
2022/07/21 11:03:03;;;;;;;15.00;11.50;;;;;;;;;;5052991;28;20228;-67
2022/07/21 11:05:31;;;;;;;16.37;12.13;;;;;;;;;;5052609;28;20277;-67
2022/07/21 11:08:14;;;;;;;15.10;11.73;;;;;;;;;;5053096;28;20174;-68
2022/07/21 11:10:43;;;;;;;15.33;13.13;;;;;;;;;;5052426;28;20662;-67
2022/07/21 11:13:09;;;;;;;16.30;13.07;;;;;;;;;;5034607;28;20535;-67
2022/07/21 11:15:55;;;;;;;16.97;13.47;;;;;;;;;;5052600;28;20185;-67
2022/07/21 11:18:22;;;;;;;17.23;13.37;;;;;;;;;;5052524;28;20638;-67
2022/07/21 11:21:23;;;;;;;15.30;12.03;;;;;;;;;;5034514;28;20682;-67
2022/07/21 11:23:50;;;;;;;13.90;12.30;;;;;;;;;;4971719;28;20196;-67
2022/07/21 11:26:17;;;;;;;14.33;12.10;;;;;;;;;;5036603;28;20198;-67
2022/07/21 11:28:44;;;;;;;13.50;12.00;;;;;;;;;;5035179;28;20739;-67
2022/07/21 11:31:10;;;;;;;11.90;10.70;;;;;;;;;;5038208;28;20211;-67
2022/07/21 11:33:37;;;;;;;14.00;10.80;;;;;;;;;;5038419;28;20188;-67
2022/07/21 11:36:03;;;;;;;11.23;10.13;;;;;;;;;;5056211;28;20638;-67
2022/07/21 11:38:29;;;;;;;13.23;11.03;;;;;;;;;;5056484;28;20236;-67
2022/07/21 11:41:12;;;;;;;12.67;10.33;;;;;;;;;;5055735;28;20218;-67
2022/07/21 11:43:42;;;;;;;13.23;10.93;;;;;;;;;;5038036;28;20562;-67
2022/07/21 11:46:08;;;;;;;16.47;11.27;;;;;;;;;;5037903;28;20178;-67
2022/07/21 11:48:34;;;;;;;14.73;11.40;;;;;;;;;;5038273;28;20276;-67
2022/07/21 11:51:01;;;;;;;13.93;10.83;;;;;;;;;;5037749;28;20202;-67
2022/07/21 11:53:27;;;;;;;11.83;10.50;;;;;;;;;;5038448;28;20188;-67
2022/07/21 11:55:53;;;;;;;12.07;10.87;;;;;;;;;;5056210;28;20179;-68
2022/07/21 11:58:20;;;;;;;11.73;10.43;;;;;;;;;;5055647;28;20171;-67
2022/07/21 12:00:46;;;;;;;11.50;10.30;;;;;;;;;;5055811;28;20255;-67
2022/07/21 12:03:13;;;;;;;12.77;10.43;;;;;;;;;;5056144;28;20304;-67
2022/07/21 12:05:39;;;;;;;12.47;11.07;;;;;;;;;;5056014;28;20182;-67
2022/07/21 12:08:05;;;;;;;16.90;11.10;;;;;;;;;;5055491;28;20210;-67
2022/07/21 12:10:31;;;;;;;13.93;10.80;;;;;;;;;;5055314;28;20226;-67
2022/07/21 12:13:00;;;;;;;15.03;10.77;;;;;;;;;;5055336;28;20650;-67
2022/07/21 12:15:28;;;;;;;14.60;11.17;;;;;;;;;;5037464;28;20186;-67
2022/07/21 12:17:56;;;;;;;10.67;9.57;;;;;;;;;;5055799;28;20170;-67
2022/07/21 12:20:32;;;;;;;11.87;9.63;;;;;;;;;;5037245;28;20646;-66
2022/07/21 12:23:05;;;;;;;10.67;9.50;;;;;;;;;;5037432;28;20615;-66
2022/07/21 12:25:38;;;;;;;10.40;9.30;;;;;;;;;;5055412;28;20155;-66
2022/07/21 12:28:06;;;;;;;11.63;8.53;;;;;;;;;;5055076;28;20201;-66
2022/07/21 12:30:36;;;;;;;9.23;8.00;;;;;;;;;;5055360;28;20241;-66
2022/07/21 12:33:02;;;;;;;9.27;8.37;;;;;;;;;;5037245;28;20175;-66
2022/07/21 12:35:28;;;;;;;9.43;8.17;;;;;;;;;;5036990;28;20228;-66
2022/07/21 12:37:59;;;;;;;7.23;6.53;;;;;;;;;;5037013;28;20175;-67
2022/07/21 12:40:25;;;;;;;7.20;6.50;;;;;;;;;;5054252;28;20242;-67
2022/07/21 12:42:52;;;;;;;5.90;5.30;;;;;;;;;;5054897;28;20173;-67
2022/07/21 12:45:21;;;;;;;7.07;4.20;;;;;;;;;;5055310;28;20253;-67
2022/07/21 12:48:06;;;;;;;5.50;4.10;;;;;;;;;;5054995;28;20232;-67
2022/07/21 12:50:32;;;;;;;4.87;4.37;;;;;;;;;;5054605;28;21781;-67
2022/07/21 12:52:57;;;;;;;4.73;4.33;;;;;;;;;;5056165;28;20175;-67
2022/07/21 12:55:23;;;;;;;6.70;5.70;;;;;;;;;;5054537;28;20179;-66
2022/07/21 12:57:49;;;;;;;7.43;6.73;;;;;;;;;;5036628;28;20224;-66
2022/07/21 13:00:15;;;;;;;9.07;8.17;;;;;;;;;;5054329;28;20174;-66
2022/07/21 13:02:47;;;;;;;8.93;8.03;;;;;;;;;;5054671;28;20186;-66
2022/07/21 13:05:13;;;;;;;9.97;8.90;;;;;;;;;;5036514;28;20183;-66
2022/07/21 13:07:39;;;;;;;9.17;8.20;;;;;;;;;;5036556;28;20189;-67
2022/07/21 13:10:05;;;;;;;10.00;8.43;;;;;;;;;;5036385;28;20185;-67
2022/07/21 13:12:31;;;;;;;10.00;7.80;;;;;;;;;;5036194;28;20212;-67
2022/07/21 13:14:57;;;;;;;9.20;7.63;;;;;;;;;;5036355;28;20261;-67
2022/07/21 13:17:23;;;;;;;8.93;7.87;;;;;;;;;;5054065;28;20665;-67
2022/07/21 13:19:49;;;;;;;10.07;9.03;;;;;;;;;;5036192;28;20178;-67
2022/07/21 13:22:15;;;;;;;8.20;7.40;;;;;;;;;;5053959;28;20226;-67
2022/07/21 13:24:41;;;;;;;9.80;8.03;;;;;;;;;;5054039;28;20186;-67
2022/07/21 13:27:07;;;;;;;9.00;7.83;;;;;;;;;;5036084;28;20186;-67
2022/07/21 13:29:33;;;;;;;10.07;9.07;;;;;;;;;;5054018;28;20174;-67
2022/07/21 13:31:59;;;;;;;10.63;9.50;;;;;;;;;;5053776;28;20202;-68
2022/07/21 13:34:26;;;;;;;11.40;8.77;;;;;;;;;;5036889;28;20187;-67
2022/07/21 13:36:52;;;;;;;9.60;8.00;;;;;;;;;;5053872;28;20253;-68
2022/07/21 13:39:18;;;;;;;11.70;8.73;;;;;;;;;;5053822;28;20213;-67
2022/07/21 13:41:44;;;;;;;9.00;8.10;;;;;;;;;;5053773;28;20218;-68
2022/07/21 13:44:10;;;;;;;10.83;9.33;;;;;;;;;;5035839;28;20529;-68
2022/07/21 13:46:36;;;;;;;9.43;8.40;;;;;;;;;;5053885;28;20185;-68
2022/07/21 13:49:02;;;;;;;15.40;9.27;;;;;;;;;;5053776;28;20174;-68
2022/07/21 13:51:28;;;;;;;11.10;9.90;;;;;;;;;;5053205;28;20687;-68
2022/07/21 13:53:54;;;;;;;13.10;9.30;;;;;;;;;;5054134;28;20231;-68
2022/07/21 13:56:20;;;;;;;10.83;9.73;;;;;;;;;;5035702;28;20525;-68
2022/07/21 13:58:46;;;;;;;10.33;9.30;;;;;;;;;;5053314;28;20171;-68
2022/07/21 14:01:13;;;;;;;11.27;9.97;;;;;;;;;;5035468;28;20248;-68
2022/07/21 14:03:39;;;;;;;10.57;9.00;;;;;;;;;;5053611;28;20232;-68
2022/07/21 14:06:05;;;;;;;8.13;7.33;;;;;;;;;;5053286;28;20188;-68
2022/07/21 14:08:31;;;;;;;10.03;7.90;;;;;;;;;;5035502;28;20197;-68
2022/07/21 14:10:57;;;;;;;8.13;6.77;;;;;;;;;;5053083;28;20224;-68
2022/07/21 14:13:23;;;;;;;7.07;6.37;;;;;;;;;;5053269;28;20177;-69
2022/07/21 14:15:49;;;;;;;7.00;6.33;;;;;;;;;;5053247;28;20229;-68
2022/07/21 14:18:15;;;;;;;7.17;6.57;;;;;;;;;;5053084;28;20179;-68
2022/07/21 14:20:41;;;;;;;6.97;6.27;;;;;;;;;;5053051;28;20195;-68
2022/07/21 14:23:07;;;;;;;6.00;5.40;;;;;;;;;;5053361;28;20181;-67
2022/07/21 14:25:33;;;;;;;6.57;5.87;;;;;;;;;;5053239;28;20174;-68
2022/07/21 14:27:59;;;;;;;6.67;6.03;;;;;;;;;;5053011;28;20175;-68